sensor_id;sensor_type;location;lat;lon;timestamp;P1;durP1;ratioP1;P2;durP2;ratioP2
12689;SDS011;6409;56.294;14.480;2022-08-19T00:01:23;11.43;;;7.83;;
12689;SDS011;6409;56.294;14.480;2022-08-19T00:03:51;11.60;;;8.27;;
12689;SDS011;6409;56.294;14.480;2022-08-19T00:06:18;12.83;;;8.23;;
12689;SDS011;6409;56.294;14.480;2022-08-19T00:08:45;14.00;;;8.60;;
12689;SDS011;6409;56.294;14.480;2022-08-19T00:11:12;12.30;;;8.70;;
12689;SDS011;6409;56.294;14.480;2022-08-19T00:13:40;15.43;;;9.23;;
12689;SDS011;6409;56.294;14.480;2022-08-19T00:16:07;11.53;;;8.03;;
12689;SDS011;6409;56.294;14.480;2022-08-19T00:18:34;15.17;;;8.67;;
12689;SDS011;6409;56.294;14.480;2022-08-19T00:21:01;16.63;;;9.10;;
12689;SDS011;6409;56.294;14.480;2022-08-19T00:23:32;11.97;;;8.50;;
12689;SDS011;6409;56.294;14.480;2022-08-19T00:26:01;17.10;;;9.73;;
12689;SDS011;6409;56.294;14.480;2022-08-19T00:28:28;14.40;;;8.83;;
12689;SDS011;6409;56.294;14.480;2022-08-19T00:30:56;14.33;;;9.17;;
12689;SDS011;6409;56.294;14.480;2022-08-19T00:33:23;12.53;;;8.53;;
12689;SDS011;6409;56.294;14.480;2022-08-19T00:35:50;13.83;;;8.73;;
12689;SDS011;6409;56.294;14.480;2022-08-19T00:38:17;13.77;;;8.27;;
12689;SDS011;6409;56.294;14.480;2022-08-19T00:40:47;14.70;;;8.80;;
12689;SDS011;6409;56.294;14.480;2022-08-19T00:43:18;9.70;;;7.33;;
12689;SDS011;6409;56.294;14.480;2022-08-19T00:45:45;10.30;;;7.67;;
12689;SDS011;6409;56.294;14.480;2022-08-19T00:48:14;13.57;;;8.20;;
12689;SDS011;6409;56.294;14.480;2022-08-19T00:50:42;11.50;;;8.03;;
12689;SDS011;6409;56.294;14.480;2022-08-19T00:53:10;14.10;;;10.07;;
12689;SDS011;6409;56.294;14.480;2022-08-19T00:55:38;12.47;;;8.53;;
12689;SDS011;6409;56.294;14.480;2022-08-19T00:58:06;11.57;;;8.00;;
12689;SDS011;6409;56.294;14.480;2022-08-19T01:00:36;12.07;;;8.00;;
12689;SDS011;6409;56.294;14.480;2022-08-19T01:03:04;14.77;;;8.70;;
12689;SDS011;6409;56.294;14.480;2022-08-19T01:05:34;11.53;;;7.70;;
12689;SDS011;6409;56.294;14.480;2022-08-19T01:08:02;17.00;;;9.43;;
12689;SDS011;6409;56.294;14.480;2022-08-19T01:10:31;14.97;;;8.73;;
12689;SDS011;6409;56.294;14.480;2022-08-19T01:12:59;11.57;;;8.17;;
12689;SDS011;6409;56.294;14.480;2022-08-19T01:15:29;10.40;;;8.03;;
12689;SDS011;6409;56.294;14.480;2022-08-19T01:17:57;12.03;;;8.30;;
12689;SDS011;6409;56.294;14.480;2022-08-19T01:20:26;16.37;;;9.57;;
12689;SDS011;6409;56.294;14.480;2022-08-19T01:22:55;13.67;;;9.90;;
12689;SDS011;6409;56.294;14.480;2022-08-19T01:25:24;14.67;;;9.53;;
12689;SDS011;6409;56.294;14.480;2022-08-19T01:27:54;13.73;;;9.50;;
12689;SDS011;6409;56.294;14.480;2022-08-19T01:30:23;14.20;;;9.87;;
12689;SDS011;6409;56.294;14.480;2022-08-19T01:32:52;14.60;;;10.33;;
12689;SDS011;6409;56.294;14.480;2022-08-19T01:35:20;13.47;;;9.80;;
12689;SDS011;6409;56.294;14.480;2022-08-19T01:37:50;13.90;;;9.17;;
12689;SDS011;6409;56.294;14.480;2022-08-19T01:40:21;12.27;;;8.33;;
12689;SDS011;6409;56.294;14.480;2022-08-19T01:42:50;10.70;;;8.40;;
12689;SDS011;6409;56.294;14.480;2022-08-19T01:45:17;13.20;;;8.40;;
12689;SDS011;6409;56.294;14.480;2022-08-19T01:47:45;14.50;;;9.10;;
12689;SDS011;6409;56.294;14.480;2022-08-19T01:50:12;12.43;;;8.50;;
12689;SDS011;6409;56.294;14.480;2022-08-19T01:52:39;13.87;;;8.33;;
12689;SDS011;6409;56.294;14.480;2022-08-19T01:55:08;10.07;;;7.80;;
12689;SDS011;6409;56.294;14.480;2022-08-19T01:57:37;12.80;;;8.17;;
12689;SDS011;6409;56.294;14.480;2022-08-19T02:00:08;12.30;;;7.87;;
12689;SDS011;6409;56.294;14.480;2022-08-19T02:02:37;11.93;;;8.83;;
12689;SDS011;6409;56.294;14.480;2022-08-19T02:05:04;11.90;;;9.00;;
12689;SDS011;6409;56.294;14.480;2022-08-19T02:07:32;13.13;;;8.97;;
12689;SDS011;6409;56.294;14.480;2022-08-19T02:10:00;15.30;;;9.43;;
12689;SDS011;6409;56.294;14.480;2022-08-19T02:12:28;10.33;;;8.07;;
12689;SDS011;6409;56.294;14.480;2022-08-19T02:14:56;10.07;;;7.77;;
12689;SDS011;6409;56.294;14.480;2022-08-19T02:17:24;12.97;;;8.40;;
12689;SDS011;6409;56.294;14.480;2022-08-19T02:19:51;10.80;;;7.77;;
12689;SDS011;6409;56.294;14.480;2022-08-19T02:22:18;10.50;;;7.80;;
12689;SDS011;6409;56.294;14.480;2022-08-19T02:24:45;13.67;;;8.10;;
12689;SDS011;6409;56.294;14.480;2022-08-19T02:27:12;13.73;;;8.10;;
12689;SDS011;6409;56.294;14.480;2022-08-19T02:29:39;11.57;;;8.00;;
12689;SDS011;6409;56.294;14.480;2022-08-19T02:32:08;11.77;;;7.87;;
12689;SDS011;6409;56.294;14.480;2022-08-19T02:34:35;11.07;;;8.30;;
12689;SDS011;6409;56.294;14.480;2022-08-19T02:37:02;13.90;;;8.67;;
12689;SDS011;6409;56.294;14.480;2022-08-19T02:39:29;10.83;;;7.87;;
12689;SDS011;6409;56.294;14.480;2022-08-19T02:41:55;15.17;;;7.60;;
12689;SDS011;6409;56.294;14.480;2022-08-19T02:44:24;11.00;;;8.10;;
12689;SDS011;6409;56.294;14.480;2022-08-19T02:46:51;11.20;;;7.63;;
12689;SDS011;6409;56.294;14.480;2022-08-19T02:49:19;15.07;;;7.73;;
12689;SDS011;6409;56.294;14.480;2022-08-19T02:51:46;11.97;;;8.13;;
12689;SDS011;6409;56.294;14.480;2022-08-19T02:54:14;15.10;;;7.93;;
12689;SDS011;6409;56.294;14.480;2022-08-19T02:56:41;11.90;;;7.93;;
12689;SDS011;6409;56.294;14.480;2022-08-19T02:59:09;14.07;;;8.47;;
12689;SDS011;6409;56.294;14.480;2022-08-19T03:01:37;11.20;;;7.93;;
12689;SDS011;6409;56.294;14.480;2022-08-19T03:04:05;11.37;;;8.03;;
12689;SDS011;6409;56.294;14.480;2022-08-19T03:06:35;12.10;;;7.13;;
12689;SDS011;6409;56.294;14.480;2022-08-19T03:09:03;11.90;;;8.40;;
12689;SDS011;6409;56.294;14.480;2022-08-19T03:11:30;11.27;;;7.93;;
12689;SDS011;6409;56.294;14.480;2022-08-19T03:13:58;11.23;;;8.07;;
12689;SDS011;6409;56.294;14.480;2022-08-19T03:16:26;9.87;;;7.37;;
12689;SDS011;6409;56.294;14.480;2022-08-19T03:18:56;12.57;;;7.77;;
12689;SDS011;6409;56.294;14.480;2022-08-19T03:21:25;11.97;;;7.93;;
12689;SDS011;6409;56.294;14.480;2022-08-19T03:23:54;10.63;;;7.40;;
12689;SDS011;6409;56.294;14.480;2022-08-19T03:26:21;12.93;;;7.43;;
12689;SDS011;6409;56.294;14.480;2022-08-19T03:28:48;9.70;;;7.23;;
12689;SDS011;6409;56.294;14.480;2022-08-19T03:31:17;11.87;;;8.43;;
12689;SDS011;6409;56.294;14.480;2022-08-19T03:33:45;9.73;;;7.07;;
12689;SDS011;6409;56.294;14.480;2022-08-19T03:36:12;12.20;;;7.57;;
12689;SDS011;6409;56.294;14.480;2022-08-19T03:38:42;14.20;;;8.23;;
12689;SDS011;6409;56.294;14.480;2022-08-19T03:41:12;11.37;;;8.27;;
12689;SDS011;6409;56.294;14.480;2022-08-19T03:43:42;10.83;;;7.77;;
12689;SDS011;6409;56.294;14.480;2022-08-19T03:46:12;10.60;;;7.57;;
12689;SDS011;6409;56.294;14.480;2022-08-19T03:48:41;8.57;;;7.20;;
12689;SDS011;6409;56.294;14.480;2022-08-19T03:51:14;10.53;;;7.93;;
12689;SDS011;6409;56.294;14.480;2022-08-19T03:53:42;9.53;;;7.60;;
12689;SDS011;6409;56.294;14.480;2022-08-19T03:56:10;10.30;;;8.00;;
12689;SDS011;6409;56.294;14.480;2022-08-19T03:58:38;12.63;;;7.90;;
12689;SDS011;6409;56.294;14.480;2022-08-19T04:01:07;10.60;;;7.97;;
12689;SDS011;6409;56.294;14.480;2022-08-19T04:03:35;13.40;;;8.70;;
12689;SDS011;6409;56.294;14.480;2022-08-19T04:06:08;12.90;;;8.30;;
12689;SDS011;6409;56.294;14.480;2022-08-19T04:08:37;9.57;;;6.87;;
12689;SDS011;6409;56.294;14.480;2022-08-19T04:11:06;15.87;;;8.60;;
12689;SDS011;6409;56.294;14.480;2022-08-19T04:13:35;10.13;;;7.37;;
12689;SDS011;6409;56.294;14.480;2022-08-19T04:16:02;12.67;;;8.30;;
12689;SDS011;6409;56.294;14.480;2022-08-19T04:18:30;12.23;;;7.53;;
12689;SDS011;6409;56.294;14.480;2022-08-19T04:20:58;10.87;;;8.23;;
12689;SDS011;6409;56.294;14.480;2022-08-19T04:23:26;12.70;;;8.03;;
12689;SDS011;6409;56.294;14.480;2022-08-19T04:25:53;11.87;;;7.87;;
12689;SDS011;6409;56.294;14.480;2022-08-19T04:28:21;13.07;;;8.03;;
12689;SDS011;6409;56.294;14.480;2022-08-19T04:30:50;12.10;;;7.17;;
12689;SDS011;6409;56.294;14.480;2022-08-19T04:33:19;9.30;;;7.20;;
12689;SDS011;6409;56.294;14.480;2022-08-19T04:35:48;10.60;;;7.33;;
12689;SDS011;6409;56.294;14.480;2022-08-19T04:38:17;11.03;;;7.67;;
12689;SDS011;6409;56.294;14.480;2022-08-19T04:40:46;10.07;;;6.53;;
12689;SDS011;6409;56.294;14.480;2022-08-19T04:43:31;8.93;;;7.13;;
12689;SDS011;6409;56.294;14.480;2022-08-19T04:46:04;9.77;;;7.17;;
12689;SDS011;6409;56.294;14.480;2022-08-19T04:48:31;8.97;;;7.27;;
12689;SDS011;6409;56.294;14.480;2022-08-19T04:50:58;14.37;;;9.37;;
12689;SDS011;6409;56.294;14.480;2022-08-19T04:53:25;11.73;;;8.30;;
12689;SDS011;6409;56.294;14.480;2022-08-19T04:55:53;10.23;;;8.00;;
12689;SDS011;6409;56.294;14.480;2022-08-19T04:58:21;12.27;;;7.73;;
12689;SDS011;6409;56.294;14.480;2022-08-19T05:00:48;12.47;;;8.27;;
12689;SDS011;6409;56.294;14.480;2022-08-19T05:03:16;12.87;;;7.97;;
12689;SDS011;6409;56.294;14.480;2022-08-19T05:05:44;9.97;;;6.90;;
12689;SDS011;6409;56.294;14.480;2022-08-19T05:08:13;11.30;;;7.50;;
12689;SDS011;6409;56.294;14.480;2022-08-19T05:10:45;9.83;;;8.23;;
12689;SDS011;6409;56.294;14.480;2022-08-19T05:13:13;11.70;;;7.57;;
12689;SDS011;6409;56.294;14.480;2022-08-19T05:15:41;11.73;;;7.77;;
12689;SDS011;6409;56.294;14.480;2022-08-19T05:18:08;12.40;;;7.60;;
12689;SDS011;6409;56.294;14.480;2022-08-19T05:20:54;10.33;;;7.40;;
12689;SDS011;6409;56.294;14.480;2022-08-19T05:23:39;12.17;;;6.47;;
12689;SDS011;6409;56.294;14.480;2022-08-19T05:26:06;8.50;;;6.90;;
12689;SDS011;6409;56.294;14.480;2022-08-19T05:28:35;8.80;;;6.50;;
12689;SDS011;6409;56.294;14.480;2022-08-19T05:31:02;10.30;;;6.53;;
12689;SDS011;6409;56.294;14.480;2022-08-19T05:33:29;9.93;;;7.20;;
12689;SDS011;6409;56.294;14.480;2022-08-19T05:35:57;11.73;;;6.90;;
12689;SDS011;6409;56.294;14.480;2022-08-19T05:38:24;12.48;;;6.47;;
12689;SDS011;6409;56.294;14.480;2022-08-19T05:40:52;9.67;;;6.30;;
12689;SDS011;6409;56.294;14.480;2022-08-19T05:43:19;7.43;;;5.90;;
12689;SDS011;6409;56.294;14.480;2022-08-19T05:45:46;7.82;;;6.65;;
12689;SDS011;6409;56.294;14.480;2022-08-19T05:48:14;8.82;;;6.93;;
12689;SDS011;6409;56.294;14.480;2022-08-19T05:50:45;8.57;;;5.97;;
12689;SDS011;6409;56.294;14.480;2022-08-19T05:53:16;13.68;;;6.47;;
12689;SDS011;6409;56.294;14.480;2022-08-19T05:55:43;12.00;;;6.20;;
12689;SDS011;6409;56.294;14.480;2022-08-19T05:58:10;7.28;;;5.95;;
12689;SDS011;6409;56.294;14.480;2022-08-19T06:00:37;14.65;;;6.50;;
12689;SDS011;6409;56.294;14.480;2022-08-19T06:03:05;9.70;;;6.25;;
12689;SDS011;6409;56.294;14.480;2022-08-19T06:05:32;6.95;;;5.68;;
12689;SDS011;6409;56.294;14.480;2022-08-19T06:07:59;11.80;;;6.35;;
12689;SDS011;6409;56.294;14.480;2022-08-19T06:10:28;10.20;;;6.10;;
12689;SDS011;6409;56.294;14.480;2022-08-19T06:12:55;7.93;;;6.35;;
12689;SDS011;6409;56.294;14.480;2022-08-19T06:15:23;8.20;;;6.40;;
12689;SDS011;6409;56.294;14.480;2022-08-19T06:17:50;9.77;;;6.25;;
12689;SDS011;6409;56.294;14.480;2022-08-19T06:20:17;8.77;;;6.38;;
12689;SDS011;6409;56.294;14.480;2022-08-19T06:22:47;10.98;;;5.80;;
12689;SDS011;6409;56.294;14.480;2022-08-19T06:25:15;10.63;;;6.32;;
12689;SDS011;6409;56.294;14.480;2022-08-19T06:27:43;8.20;;;5.38;;
12689;SDS011;6409;56.294;14.480;2022-08-19T06:30:11;8.88;;;6.00;;
12689;SDS011;6409;56.294;14.480;2022-08-19T06:32:38;11.13;;;5.80;;
12689;SDS011;6409;56.294;14.480;2022-08-19T06:35:06;8.65;;;6.15;;
12689;SDS011;6409;56.294;14.480;2022-08-19T06:37:33;6.85;;;5.63;;
12689;SDS011;6409;56.294;14.480;2022-08-19T06:40:00;8.77;;;6.03;;
12689;SDS011;6409;56.294;14.480;2022-08-19T06:42:27;7.70;;;5.47;;
12689;SDS011;6409;56.294;14.480;2022-08-19T06:44:55;7.53;;;5.53;;
12689;SDS011;6409;56.294;14.480;2022-08-19T06:47:23;6.70;;;5.68;;
12689;SDS011;6409;56.294;14.480;2022-08-19T06:49:52;7.15;;;5.78;;
12689;SDS011;6409;56.294;14.480;2022-08-19T06:52:20;8.65;;;5.85;;
12689;SDS011;6409;56.294;14.480;2022-08-19T06:54:48;6.18;;;5.22;;
12689;SDS011;6409;56.294;14.480;2022-08-19T06:57:15;6.78;;;5.60;;
12689;SDS011;6409;56.294;14.480;2022-08-19T06:59:42;7.40;;;6.00;;
12689;SDS011;6409;56.294;14.480;2022-08-19T07:02:10;10.02;;;6.15;;
12689;SDS011;6409;56.294;14.480;2022-08-19T07:04:37;6.95;;;5.68;;
12689;SDS011;6409;56.294;14.480;2022-08-19T07:07:05;6.90;;;5.60;;
12689;SDS011;6409;56.294;14.480;2022-08-19T07:09:35;9.57;;;5.60;;
12689;SDS011;6409;56.294;14.480;2022-08-19T07:12:03;9.10;;;6.25;;
12689;SDS011;6409;56.294;14.480;2022-08-19T07:14:31;10.40;;;6.78;;
12689;SDS011;6409;56.294;14.480;2022-08-19T07:17:00;13.27;;;6.18;;
12689;SDS011;6409;56.294;14.480;2022-08-19T07:19:28;6.95;;;6.25;;
12689;SDS011;6409;56.294;14.480;2022-08-19T07:21:56;12.32;;;7.70;;
12689;SDS011;6409;56.294;14.480;2022-08-19T07:24:26;15.18;;;6.20;;
12689;SDS011;6409;56.294;14.480;2022-08-19T07:26:54;9.15;;;6.85;;
12689;SDS011;6409;56.294;14.480;2022-08-19T07:29:24;13.95;;;6.55;;
12689;SDS011;6409;56.294;14.480;2022-08-19T07:31:51;8.68;;;5.95;;
12689;SDS011;6409;56.294;14.480;2022-08-19T07:34:21;13.27;;;6.68;;
12689;SDS011;6409;56.294;14.480;2022-08-19T07:36:49;8.90;;;5.95;;
12689;SDS011;6409;56.294;14.480;2022-08-19T07:39:17;10.38;;;6.72;;
12689;SDS011;6409;56.294;14.480;2022-08-19T07:41:46;10.13;;;7.03;;
12689;SDS011;6409;56.294;14.480;2022-08-19T07:44:13;10.25;;;6.85;;
12689;SDS011;6409;56.294;14.480;2022-08-19T07:46:42;11.13;;;6.72;;
12689;SDS011;6409;56.294;14.480;2022-08-19T07:49:11;9.20;;;6.15;;
12689;SDS011;6409;56.294;14.480;2022-08-19T07:51:42;8.27;;;6.68;;
12689;SDS011;6409;56.294;14.480;2022-08-19T07:54:11;10.55;;;7.43;;
12689;SDS011;6409;56.294;14.480;2022-08-19T07:56:38;10.27;;;6.90;;
12689;SDS011;6409;56.294;14.480;2022-08-19T07:59:05;12.98;;;6.78;;
12689;SDS011;6409;56.294;14.480;2022-08-19T08:01:32;9.15;;;7.43;;
12689;SDS011;6409;56.294;14.480;2022-08-19T08:03:59;10.60;;;7.03;;
12689;SDS011;6409;56.294;14.480;2022-08-19T08:06:44;11.52;;;7.30;;
12689;SDS011;6409;56.294;14.480;2022-08-19T08:09:30;9.45;;;6.55;;
12689;SDS011;6409;56.294;14.480;2022-08-19T08:12:01;9.82;;;6.30;;
12689;SDS011;6409;56.294;14.480;2022-08-19T08:14:32;12.35;;;7.75;;
12689;SDS011;6409;56.294;14.480;2022-08-19T08:17:00;15.43;;;6.50;;
12689;SDS011;6409;56.294;14.480;2022-08-19T08:19:28;9.85;;;6.80;;
12689;SDS011;6409;56.294;14.480;2022-08-19T08:21:56;8.73;;;6.75;;
12689;SDS011;6409;56.294;14.480;2022-08-19T08:24:24;11.23;;;7.35;;
12689;SDS011;6409;56.294;14.480;2022-08-19T08:26:53;15.75;;;7.63;;
12689;SDS011;6409;56.294;14.480;2022-08-19T08:29:20;8.73;;;7.32;;
12689;SDS011;6409;56.294;14.480;2022-08-19T08:31:47;9.52;;;6.95;;
12689;SDS011;6409;56.294;14.480;2022-08-19T08:34:14;8.80;;;6.95;;
12689;SDS011;6409;56.294;14.480;2022-08-19T08:36:41;11.63;;;7.53;;
12689;SDS011;6409;56.294;14.480;2022-08-19T08:39:11;9.18;;;6.63;;
12689;SDS011;6409;56.294;14.480;2022-08-19T08:41:42;10.55;;;7.50;;
12689;SDS011;6409;56.294;14.480;2022-08-19T08:44:16;11.77;;;7.28;;
12689;SDS011;6409;56.294;14.480;2022-08-19T08:46:47;13.38;;;7.50;;
12689;SDS011;6409;56.294;14.480;2022-08-19T08:49:23;9.38;;;7.03;;
12689;SDS011;6409;56.294;14.480;2022-08-19T08:51:57;9.48;;;6.80;;
12689;SDS011;6409;56.294;14.480;2022-08-19T08:54:29;11.43;;;6.75;;
12689;SDS011;6409;56.294;14.480;2022-08-19T08:57:00;11.10;;;6.78;;
12689;SDS011;6409;56.294;14.480;2022-08-19T08:59:33;8.60;;;5.90;;
12689;SDS011;6409;56.294;14.480;2022-08-19T09:02:02;7.70;;;6.82;;
12689;SDS011;6409;56.294;14.480;2022-08-19T09:04:29;9.73;;;6.90;;
12689;SDS011;6409;56.294;14.480;2022-08-19T09:06:58;8.73;;;7.00;;
12689;SDS011;6409;56.294;14.480;2022-08-19T09:09:37;11.40;;;7.07;;
12689;SDS011;6409;56.294;14.480;2022-08-19T09:12:07;12.75;;;6.53;;
12689;SDS011;6409;56.294;14.480;2022-08-19T09:14:39;9.25;;;6.68;;
12689;SDS011;6409;56.294;14.480;2022-08-19T09:17:10;10.05;;;6.85;;
12689;SDS011;6409;56.294;14.480;2022-08-19T09:19:46;13.05;;;6.70;;
12689;SDS011;6409;56.294;14.480;2022-08-19T09:22:19;11.15;;;6.63;;
12689;SDS011;6409;56.294;14.480;2022-08-19T09:24:48;9.38;;;6.63;;
12689;SDS011;6409;56.294;14.480;2022-08-19T09:27:15;15.23;;;6.15;;
12689;SDS011;6409;56.294;14.480;2022-08-19T09:29:43;8.98;;;5.65;;
12689;SDS011;6409;56.294;14.480;2022-08-19T09:32:11;7.75;;;6.35;;
12689;SDS011;6409;56.294;14.480;2022-08-19T09:34:37;19.55;;;7.80;;
12689;SDS011;6409;56.294;14.480;2022-08-19T09:37:04;10.85;;;6.43;;
12689;SDS011;6409;56.294;14.480;2022-08-19T09:39:31;7.35;;;6.18;;
12689;SDS011;6409;56.294;14.480;2022-08-19T09:41:58;7.85;;;6.07;;
12689;SDS011;6409;56.294;14.480;2022-08-19T09:44:25;10.68;;;6.90;;
12689;SDS011;6409;56.294;14.480;2022-08-19T09:46:54;10.75;;;6.80;;
12689;SDS011;6409;56.294;14.480;2022-08-19T09:49:21;9.40;;;6.40;;
12689;SDS011;6409;56.294;14.480;2022-08-19T09:51:49;9.13;;;6.55;;
12689;SDS011;6409;56.294;14.480;2022-08-19T09:54:17;10.07;;;6.72;;
12689;SDS011;6409;56.294;14.480;2022-08-19T09:56:44;7.35;;;6.00;;
12689;SDS011;6409;56.294;14.480;2022-08-19T09:59:11;10.88;;;6.20;;
12689;SDS011;6409;56.294;14.480;2022-08-19T10:01:38;8.88;;;6.53;;
12689;SDS011;6409;56.294;14.480;2022-08-19T10:04:06;8.75;;;6.43;;
12689;SDS011;6409;56.294;14.480;2022-08-19T10:06:34;10.35;;;6.47;;
12689;SDS011;6409;56.294;14.480;2022-08-19T10:09:03;9.40;;;6.55;;
12689;SDS011;6409;56.294;14.480;2022-08-19T10:11:31;9.35;;;5.63;;
12689;SDS011;6409;56.294;14.480;2022-08-19T10:13:58;7.25;;;5.32;;
12689;SDS011;6409;56.294;14.480;2022-08-19T10:16:26;12.57;;;5.60;;
12689;SDS011;6409;56.294;14.480;2022-08-19T10:18:53;8.32;;;5.57;;
12689;SDS011;6409;56.294;14.480;2022-08-19T10:21:22;7.30;;;5.68;;
12689;SDS011;6409;56.294;14.480;2022-08-19T10:23:51;8.27;;;5.90;;
12689;SDS011;6409;56.294;14.480;2022-08-19T10:26:20;8.00;;;5.78;;
12689;SDS011;6409;56.294;14.480;2022-08-19T10:28:48;9.05;;;5.50;;
12689;SDS011;6409;56.294;14.480;2022-08-19T10:31:16;12.65;;;6.90;;
12689;SDS011;6409;56.294;14.480;2022-08-19T10:33:45;9.15;;;5.55;;
12689;SDS011;6409;56.294;14.480;2022-08-19T10:36:25;9.20;;;6.30;;
12689;SDS011;6409;56.294;14.480;2022-08-19T10:38:54;8.02;;;5.60;;
12689;SDS011;6409;56.294;14.480;2022-08-19T10:41:26;7.65;;;5.50;;
12689;SDS011;6409;56.294;14.480;2022-08-19T10:43:55;8.55;;;5.80;;
12689;SDS011;6409;56.294;14.480;2022-08-19T10:46:24;7.03;;;5.63;;
12689;SDS011;6409;56.294;14.480;2022-08-19T10:48:52;10.27;;;5.68;;
12689;SDS011;6409;56.294;14.480;2022-08-19T10:51:20;6.05;;;5.32;;
12689;SDS011;6409;56.294;14.480;2022-08-19T10:54:06;6.25;;;4.75;;
12689;SDS011;6409;56.294;14.480;2022-08-19T10:56:33;8.88;;;5.63;;
12689;SDS011;6409;56.294;14.480;2022-08-19T10:59:24;4.88;;;4.38;;
12689;SDS011;6409;56.294;14.480;2022-08-19T11:01:52;7.32;;;4.72;;
12689;SDS011;6409;56.294;14.480;2022-08-19T11:04:20;7.38;;;4.72;;
12689;SDS011;6409;56.294;14.480;2022-08-19T11:06:47;5.90;;;5.05;;
12689;SDS011;6409;56.294;14.480;2022-08-19T11:09:17;9.88;;;5.50;;
12689;SDS011;6409;56.294;14.480;2022-08-19T11:11:45;7.20;;;5.30;;
12689;SDS011;6409;56.294;14.480;2022-08-19T11:14:13;7.72;;;5.57;;
12689;SDS011;6409;56.294;14.480;2022-08-19T11:16:41;6.95;;;5.35;;
12689;SDS011;6409;56.294;14.480;2022-08-19T11:19:09;6.97;;;5.07;;
12689;SDS011;6409;56.294;14.480;2022-08-19T11:21:38;15.68;;;5.43;;
12689;SDS011;6409;56.294;14.480;2022-08-19T11:24:08;6.40;;;5.35;;
12689;SDS011;6409;56.294;14.480;2022-08-19T11:26:38;8.95;;;5.38;;
12689;SDS011;6409;56.294;14.480;2022-08-19T11:29:07;6.93;;;5.63;;
12689;SDS011;6409;56.294;14.480;2022-08-19T11:31:36;7.28;;;5.30;;
12689;SDS011;6409;56.294;14.480;2022-08-19T11:34:10;6.50;;;4.72;;
12689;SDS011;6409;56.294;14.480;2022-08-19T11:36:38;7.47;;;5.45;;
12689;SDS011;6409;56.294;14.480;2022-08-19T11:39:07;13.98;;;5.53;;
12689;SDS011;6409;56.294;14.480;2022-08-19T11:41:35;7.60;;;5.28;;
12689;SDS011;6409;56.294;14.480;2022-08-19T11:44:04;7.07;;;5.53;;
12689;SDS011;6409;56.294;14.480;2022-08-19T11:46:33;8.85;;;5.22;;
12689;SDS011;6409;56.294;14.480;2022-08-19T11:49:00;7.88;;;5.60;;
12689;SDS011;6409;56.294;14.480;2022-08-19T11:51:28;7.97;;;5.65;;
12689;SDS011;6409;56.294;14.480;2022-08-19T11:53:57;11.73;;;5.90;;
12689;SDS011;6409;56.294;14.480;2022-08-19T11:56:24;7.05;;;5.50;;
12689;SDS011;6409;56.294;14.480;2022-08-19T11:58:54;8.90;;;5.35;;
12689;SDS011;6409;56.294;14.480;2022-08-19T12:01:22;7.93;;;5.35;;
12689;SDS011;6409;56.294;14.480;2022-08-19T12:03:51;9.15;;;6.25;;
12689;SDS011;6409;56.294;14.480;2022-08-19T12:06:20;6.00;;;5.40;;
12689;SDS011;6409;56.294;14.480;2022-08-19T12:08:52;13.05;;;5.65;;
12689;SDS011;6409;56.294;14.480;2022-08-19T12:11:19;6.35;;;4.88;;
12689;SDS011;6409;56.294;14.480;2022-08-19T12:13:46;6.90;;;5.15;;
12689;SDS011;6409;56.294;14.480;2022-08-19T12:16:15;8.93;;;5.18;;
12689;SDS011;6409;56.294;14.480;2022-08-19T12:18:43;7.80;;;5.50;;
12689;SDS011;6409;56.294;14.480;2022-08-19T12:21:11;8.00;;;5.13;;
12689;SDS011;6409;56.294;14.480;2022-08-19T12:23:38;5.57;;;4.93;;
12689;SDS011;6409;56.294;14.480;2022-08-19T12:26:05;8.25;;;5.55;;
12689;SDS011;6409;56.294;14.480;2022-08-19T12:28:32;8.23;;;5.38;;
12689;SDS011;6409;56.294;14.480;2022-08-19T12:31:00;6.35;;;5.00;;
12689;SDS011;6409;56.294;14.480;2022-08-19T12:33:28;6.90;;;5.30;;
12689;SDS011;6409;56.294;14.480;2022-08-19T12:35:59;8.23;;;5.32;;
12689;SDS011;6409;56.294;14.480;2022-08-19T12:38:28;10.73;;;5.75;;
12689;SDS011;6409;56.294;14.480;2022-08-19T12:40:54;8.65;;;5.05;;
12689;SDS011;6409;56.294;14.480;2022-08-19T12:43:21;10.52;;;5.68;;
12689;SDS011;6409;56.294;14.480;2022-08-19T12:45:48;7.30;;;5.47;;
12689;SDS011;6409;56.294;14.480;2022-08-19T12:48:15;5.72;;;5.13;;
12689;SDS011;6409;56.294;14.480;2022-08-19T12:50:44;6.15;;;4.95;;
12689;SDS011;6409;56.294;14.480;2022-08-19T12:53:12;10.40;;;5.50;;
12689;SDS011;6409;56.294;14.480;2022-08-19T12:55:39;10.13;;;6.00;;
12689;SDS011;6409;56.294;14.480;2022-08-19T12:58:07;6.57;;;5.38;;
12689;SDS011;6409;56.294;14.480;2022-08-19T13:00:34;8.88;;;5.38;;
12689;SDS011;6409;56.294;14.480;2022-08-19T13:03:01;6.63;;;5.32;;
12689;SDS011;6409;56.294;14.480;2022-08-19T13:05:29;8.70;;;5.80;;
12689;SDS011;6409;56.294;14.480;2022-08-19T13:07:59;9.68;;;6.63;;
12689;SDS011;6409;56.294;14.480;2022-08-19T13:10:27;9.18;;;5.53;;
12689;SDS011;6409;56.294;14.480;2022-08-19T13:13:00;9.25;;;5.63;;
12689;SDS011;6409;56.294;14.480;2022-08-19T13:15:28;7.97;;;5.60;;
12689;SDS011;6409;56.294;14.480;2022-08-19T13:17:56;8.60;;;6.25;;
12689;SDS011;6409;56.294;14.480;2022-08-19T13:20:23;9.52;;;6.18;;
12689;SDS011;6409;56.294;14.480;2022-08-19T13:22:50;8.30;;;6.18;;
12689;SDS011;6409;56.294;14.480;2022-08-19T13:25:19;13.77;;;6.07;;
12689;SDS011;6409;56.294;14.480;2022-08-19T13:27:47;13.82;;;6.22;;
12689;SDS011;6409;56.294;14.480;2022-08-19T13:30:15;10.75;;;6.45;;
12689;SDS011;6409;56.294;14.480;2022-08-19T13:33:00;9.20;;;6.40;;
12689;SDS011;6409;56.294;14.480;2022-08-19T13:35:44;9.90;;;7.00;;
12689;SDS011;6409;56.294;14.480;2022-08-19T13:38:13;10.35;;;7.05;;
12689;SDS011;6409;56.294;14.480;2022-08-19T13:40:42;8.40;;;6.47;;
12689;SDS011;6409;56.294;14.480;2022-08-19T13:43:10;6.88;;;6.18;;
12689;SDS011;6409;56.294;14.480;2022-08-19T13:45:37;7.65;;;5.97;;
12689;SDS011;6409;56.294;14.480;2022-08-19T13:48:05;9.80;;;7.45;;
12689;SDS011;6409;56.294;14.480;2022-08-19T13:50:34;8.63;;;6.50;;
12689;SDS011;6409;56.294;14.480;2022-08-19T13:53:03;13.43;;;6.10;;
12689;SDS011;6409;56.294;14.480;2022-08-19T13:55:30;9.93;;;6.97;;
12689;SDS011;6409;56.294;14.480;2022-08-19T13:57:59;10.57;;;6.72;;
12689;SDS011;6409;56.294;14.480;2022-08-19T14:00:28;8.93;;;7.13;;
12689;SDS011;6409;56.294;14.480;2022-08-19T14:02:57;10.23;;;6.35;;
12689;SDS011;6409;56.294;14.480;2022-08-19T14:05:25;10.48;;;6.03;;
12689;SDS011;6409;56.294;14.480;2022-08-19T14:07:53;11.43;;;7.18;;
12689;SDS011;6409;56.294;14.480;2022-08-19T14:10:20;12.57;;;6.60;;
12689;SDS011;6409;56.294;14.480;2022-08-19T14:12:49;10.52;;;6.80;;
12689;SDS011;6409;56.294;14.480;2022-08-19T14:15:19;12.35;;;6.70;;
12689;SDS011;6409;56.294;14.480;2022-08-19T14:17:46;8.27;;;6.82;;
12689;SDS011;6409;56.294;14.480;2022-08-19T14:20:14;7.32;;;6.43;;
12689;SDS011;6409;56.294;14.480;2022-08-19T14:22:41;9.70;;;6.70;;
12689;SDS011;6409;56.294;14.480;2022-08-19T14:25:10;12.43;;;6.63;;
12689;SDS011;6409;56.294;14.480;2022-08-19T14:27:38;8.80;;;6.85;;
12689;SDS011;6409;56.294;14.480;2022-08-19T14:30:07;7.82;;;6.38;;
12689;SDS011;6409;56.294;14.480;2022-08-19T14:32:36;10.13;;;6.15;;
12689;SDS011;6409;56.294;14.480;2022-08-19T14:35:04;11.10;;;6.50;;
12689;SDS011;6409;56.294;14.480;2022-08-19T14:37:32;8.27;;;5.80;;
12689;SDS011;6409;56.294;14.480;2022-08-19T14:39:59;7.75;;;6.32;;
12689;SDS011;6409;56.294;14.480;2022-08-19T14:42:26;9.45;;;6.28;;
12689;SDS011;6409;56.294;14.480;2022-08-19T14:44:53;7.32;;;6.05;;
12689;SDS011;6409;56.294;14.480;2022-08-19T14:47:24;11.48;;;6.38;;
12689;SDS011;6409;56.294;14.480;2022-08-19T14:49:53;10.82;;;6.13;;